Terminal Aerodrome Forecast
Issued by NWS

Current Version | Previous Version | Text Only | Print | Product List | Glossary On
Versions: 1 2 3 4 5 6 7 8 9 10 11 12
000
FTUS46 KOTX 261143
TAFSFF
TAF
KSFF 261143Z 2612/2712 02003KT P6SM SCT150 BKN200
     FM261600 14003KT P6SM VCTS FEW120CB BKN150
     FM261800 20005KT P6SM SCT150 BKN200
     FM270100 22009KT P6SM VCTS SCT080CB BKN150
     FM270300 19015G30KT P6SM -TSRA BKN070CB BKN150
     FM270500 22010G17KT P6SM -SHRA VCTS BKN070CB BKN120
     FM270700 21009KT P6SM SCT120=

USA.gov is the U.S. government's official web portal to all federal, state and local government web resources and services.